Aviation Digital Data Service (ADDS)

Output produced by TAFs form (0309 UTC 20 July 2018)
found at http://www.aviationweather.gov/adds/tafs/
 
KTLH 200253Z 29003KT 7SM RA FEW029 SCT047 BKN065 25/24 A2995 RMK AO2 LTG DSNT NE AND W RAE11B39 TSB11E46 SLP139 OCNL LTG DSNT W LAST P0001 60002 T02500244 51012
KTLH 200052Z 2001/2024 VRB03KT P6SM -SHRA SCT035 
     TEMPO 2001/2003 TSRA BKN030CB OVC250 
     FM201500 24006KT P6SM SCT030 
     FM201800 22006KT P6SM TSRA BKN025CB